sensor_id;sensor_type;location;lat;lon;timestamp;temperature;humidity
44461;DHT22;30162;53.642;10.640;2023-02-11T00:00:53;8.90;93.90
44461;DHT22;30162;53.642;10.640;2023-02-11T00:03:19;9.00;93.90
44461;DHT22;30162;53.642;10.640;2023-02-11T00:05:44;9.20;93.80
44461;DHT22;30162;53.642;10.640;2023-02-11T00:08:10;9.20;93.50
44461;DHT22;30162;53.642;10.640;2023-02-11T00:10:41;9.20;93.70
44461;DHT22;30162;53.642;10.640;2023-02-11T00:13:06;8.90;94.00
44461;DHT22;30162;53.642;10.640;2023-02-11T00:15:32;8.80;94.00
44461;DHT22;30162;53.642;10.640;2023-02-11T00:17:57;8.80;94.60
44461;DHT22;30162;53.642;10.640;2023-02-11T00:22:50;8.80;94.70
44461;DHT22;30162;53.642;10.640;2023-02-11T00:25:16;8.90;94.30
44461;DHT22;30162;53.642;10.640;2023-02-11T00:27:42;8.90;94.30
44461;DHT22;30162;53.642;10.640;2023-02-11T00:30:07;9.00;94.30
44461;DHT22;30162;53.642;10.640;2023-02-11T00:32:33;8.50;94.70
44461;DHT22;30162;53.642;10.640;2023-02-11T00:34:58;8.40;94.90
44461;DHT22;30162;53.642;10.640;2023-02-11T00:37:24;8.50;95.50
44461;DHT22;30162;53.642;10.640;2023-02-11T00:39:49;8.40;95.40
44461;DHT22;30162;53.642;10.640;2023-02-11T00:42:14;8.40;95.90
44461;DHT22;30162;53.642;10.640;2023-02-11T00:44:40;8.20;96.00
44461;DHT22;30162;53.642;10.640;2023-02-11T00:47:06;8.60;95.60
44461;DHT22;30162;53.642;10.640;2023-02-11T00:49:31;8.80;95.40
44461;DHT22;30162;53.642;10.640;2023-02-11T00:51:57;8.70;95.70
44461;DHT22;30162;53.642;10.640;2023-02-11T00:54:22;8.70;95.40
44461;DHT22;30162;53.642;10.640;2023-02-11T00:56:48;8.50;95.40
44461;DHT22;30162;53.642;10.640;2023-02-11T00:59:13;8.40;95.60
44461;DHT22;30162;53.642;10.640;2023-02-11T01:01:39;8.70;95.80
44461;DHT22;30162;53.642;10.640;2023-02-11T01:04:04;8.50;95.50
44461;DHT22;30162;53.642;10.640;2023-02-11T01:06:30;8.50;95.80
44461;DHT22;30162;53.642;10.640;2023-02-11T01:08:55;8.60;96.00
44461;DHT22;30162;53.642;10.640;2023-02-11T01:11:22;8.50;96.00
44461;DHT22;30162;53.642;10.640;2023-02-11T01:13:48;8.40;96.20
44461;DHT22;30162;53.642;10.640;2023-02-11T01:16:13;8.60;96.30
44461;DHT22;30162;53.642;10.640;2023-02-11T01:18:39;8.50;96.00
44461;DHT22;30162;53.642;10.640;2023-02-11T01:21:06;8.50;96.00
44461;DHT22;30162;53.642;10.640;2023-02-11T01:23:31;8.70;96.30
44461;DHT22;30162;53.642;10.640;2023-02-11T01:25:57;8.80;95.70
44461;DHT22;30162;53.642;10.640;2023-02-11T01:28:24;8.90;95.80
44461;DHT22;30162;53.642;10.640;2023-02-11T01:30:50;8.90;95.70
44461;DHT22;30162;53.642;10.640;2023-02-11T01:33:15;9.00;95.60
44461;DHT22;30162;53.642;10.640;2023-02-11T01:35:41;8.80;95.60
44461;DHT22;30162;53.642;10.640;2023-02-11T01:38:08;8.80;95.70
44461;DHT22;30162;53.642;10.640;2023-02-11T01:40:38;8.60;96.30
44461;DHT22;30162;53.642;10.640;2023-02-11T01:43:03;8.30;96.80
44461;DHT22;30162;53.642;10.640;2023-02-11T01:48:03;8.70;96.30
44461;DHT22;30162;53.642;10.640;2023-02-11T01:50:29;8.70;96.40
44461;DHT22;30162;53.642;10.640;2023-02-11T01:52:55;8.80;96.20
44461;DHT22;30162;53.642;10.640;2023-02-11T01:55:40;8.80;96.20
44461;DHT22;30162;53.642;10.640;2023-02-11T01:58:24;8.80;96.20
44461;DHT22;30162;53.642;10.640;2023-02-11T02:00:51;9.00;95.80
44461;DHT22;30162;53.642;10.640;2023-02-11T02:03:17;8.80;96.20
44461;DHT22;30162;53.642;10.640;2023-02-11T02:05:48;9.10;96.00
44461;DHT22;30162;53.642;10.640;2023-02-11T02:10:45;8.90;96.10
44461;DHT22;30162;53.642;10.640;2023-02-11T02:13:11;8.60;96.50
44461;DHT22;30162;53.642;10.640;2023-02-11T02:15:38;8.90;96.50
44461;DHT22;30162;53.642;10.640;2023-02-11T02:18:26;8.80;96.30
44461;DHT22;30162;53.642;10.640;2023-02-11T02:23:42;9.20;96.00
44461;DHT22;30162;53.642;10.640;2023-02-11T02:29:16;9.20;95.90
44461;DHT22;30162;53.642;10.640;2023-02-11T02:34:35;9.00;96.50
44461;DHT22;30162;53.642;10.640;2023-02-11T02:39:28;9.40;96.10
44461;DHT22;30162;53.642;10.640;2023-02-11T02:41:55;9.40;96.10
44461;DHT22;30162;53.642;10.640;2023-02-11T02:44:21;9.50;95.90
44461;DHT22;30162;53.642;10.640;2023-02-11T02:46:47;9.60;95.80
44461;DHT22;30162;53.642;10.640;2023-02-11T02:49:13;9.40;96.00
44461;DHT22;30162;53.642;10.640;2023-02-11T02:54:35;9.40;96.00
44461;DHT22;30162;53.642;10.640;2023-02-11T03:02:34;9.50;96.20
44461;DHT22;30162;53.642;10.640;2023-02-11T03:06:04;9.50;96.00
44461;DHT22;30162;53.642;10.640;2023-02-11T03:07:58;9.70;95.80
44461;DHT22;30162;53.642;10.640;2023-02-11T03:10:33;9.30;96.00
44461;DHT22;30162;53.642;10.640;2023-02-11T03:13:00;9.50;96.10
44461;DHT22;30162;53.642;10.640;2023-02-11T03:15:27;9.60;96.10
44461;DHT22;30162;53.642;10.640;2023-02-11T03:17:55;9.70;95.90
44461;DHT22;30162;53.642;10.640;2023-02-11T03:20:23;9.80;95.70
44461;DHT22;30162;53.642;10.640;2023-02-11T03:22:52;9.70;95.90
44461;DHT22;30162;53.642;10.640;2023-02-11T03:25:20;9.90;95.70
44461;DHT22;30162;53.642;10.640;2023-02-11T03:27:51;9.40;96.00
44461;DHT22;30162;53.642;10.640;2023-02-11T03:30:30;9.50;96.40
44461;DHT22;30162;53.642;10.640;2023-02-11T03:33:00;9.60;96.20
44461;DHT22;30162;53.642;10.640;2023-02-11T03:35:44;9.70;96.20
44461;DHT22;30162;53.642;10.640;2023-02-11T03:38:13;9.60;96.20
44461;DHT22;30162;53.642;10.640;2023-02-11T03:40:41;9.80;96.00
44461;DHT22;30162;53.642;10.640;2023-02-11T03:43:12;9.80;95.80
44461;DHT22;30162;53.642;10.640;2023-02-11T03:45:38;9.80;96.10
44461;DHT22;30162;53.642;10.640;2023-02-11T03:48:06;9.60;96.30
44461;DHT22;30162;53.642;10.640;2023-02-11T03:50:33;9.60;96.50
44461;DHT22;30162;53.642;10.640;2023-02-11T03:53:00;9.50;96.50
44461;DHT22;30162;53.642;10.640;2023-02-11T03:55:26;9.60;96.60
44461;DHT22;30162;53.642;10.640;2023-02-11T03:57:52;10.00;96.20
44461;DHT22;30162;53.642;10.640;2023-02-11T04:00:17;9.80;95.90
44461;DHT22;30162;53.642;10.640;2023-02-11T04:02:43;9.80;96.10
44461;DHT22;30162;53.642;10.640;2023-02-11T04:05:10;9.90;95.90
44461;DHT22;30162;53.642;10.640;2023-02-11T04:07:36;9.90;95.70
44461;DHT22;30162;53.642;10.640;2023-02-11T04:10:02;10.00;95.80
44461;DHT22;30162;53.642;10.640;2023-02-11T04:12:28;9.70;96.10
44461;DHT22;30162;53.642;10.640;2023-02-11T04:14:53;9.70;96.50
44461;DHT22;30162;53.642;10.640;2023-02-11T04:17:18;9.60;96.20
44461;DHT22;30162;53.642;10.640;2023-02-11T04:19:44;9.80;96.30
44461;DHT22;30162;53.642;10.640;2023-02-11T04:22:10;10.10;95.90
44461;DHT22;30162;53.642;10.640;2023-02-11T04:24:36;10.10;95.90
44461;DHT22;30162;53.642;10.640;2023-02-11T04:27:01;10.30;95.30
44461;DHT22;30162;53.642;10.640;2023-02-11T04:29:27;10.20;95.50
44461;DHT22;30162;53.642;10.640;2023-02-11T04:31:52;10.10;95.70
44461;DHT22;30162;53.642;10.640;2023-02-11T04:34:18;10.00;95.90
44461;DHT22;30162;53.642;10.640;2023-02-11T04:36:43;9.90;95.60
44461;DHT22;30162;53.642;10.640;2023-02-11T04:39:09;10.00;95.90
44461;DHT22;30162;53.642;10.640;2023-02-11T04:41:34;10.30;95.50
44461;DHT22;30162;53.642;10.640;2023-02-11T04:44:00;10.30;95.40
44461;DHT22;30162;53.642;10.640;2023-02-11T04:46:25;10.00;95.60
44461;DHT22;30162;53.642;10.640;2023-02-11T04:48:51;10.20;95.90
44461;DHT22;30162;53.642;10.640;2023-02-11T04:51:16;10.20;95.50
44461;DHT22;30162;53.642;10.640;2023-02-11T04:53:41;10.20;95.70
44461;DHT22;30162;53.642;10.640;2023-02-11T04:56:07;10.30;95.70
44461;DHT22;30162;53.642;10.640;2023-02-11T04:58:32;10.30;95.40
44461;DHT22;30162;53.642;10.640;2023-02-11T05:01:05;10.20;95.60
44461;DHT22;30162;53.642;10.640;2023-02-11T05:03:31;10.50;95.50
44461;DHT22;30162;53.642;10.640;2023-02-11T05:05:56;10.10;95.70
44461;DHT22;30162;53.642;10.640;2023-02-11T05:08:21;10.30;96.00
44461;DHT22;30162;53.642;10.640;2023-02-11T05:10:47;10.10;96.10
44461;DHT22;30162;53.642;10.640;2023-02-11T05:13:12;10.20;96.00
44461;DHT22;30162;53.642;10.640;2023-02-11T05:15:38;10.40;96.00
44461;DHT22;30162;53.642;10.640;2023-02-11T05:18:03;10.20;96.00
44461;DHT22;30162;53.642;10.640;2023-02-11T05:20:29;10.40;96.10
44461;DHT22;30162;53.642;10.640;2023-02-11T05:22:54;10.40;95.90
44461;DHT22;30162;53.642;10.640;2023-02-11T05:25:20;10.00;95.80
44461;DHT22;30162;53.642;10.640;2023-02-11T05:27:45;10.30;96.10
44461;DHT22;30162;53.642;10.640;2023-02-11T05:30:11;10.40;95.70
44461;DHT22;30162;53.642;10.640;2023-02-11T05:32:36;10.70;95.60
44461;DHT22;30162;53.642;10.640;2023-02-11T05:35:02;10.70;95.20
44461;DHT22;30162;53.642;10.640;2023-02-11T05:37:27;10.20;95.90
44461;DHT22;30162;53.642;10.640;2023-02-11T05:39:52;9.90;96.30
44461;DHT22;30162;53.642;10.640;2023-02-11T05:42:18;9.80;96.90
44461;DHT22;30162;53.642;10.640;2023-02-11T05:44:43;9.90;96.70
44461;DHT22;30162;53.642;10.640;2023-02-11T05:47:09;10.20;96.50
44461;DHT22;30162;53.642;10.640;2023-02-11T05:49:34;10.30;96.10
44461;DHT22;30162;53.642;10.640;2023-02-11T05:52:00;10.40;96.20
44461;DHT22;30162;53.642;10.640;2023-02-11T05:54:25;10.20;96.20
44461;DHT22;30162;53.642;10.640;2023-02-11T05:56:51;10.00;96.60
44461;DHT22;30162;53.642;10.640;2023-02-11T05:59:16;9.90;96.80
44461;DHT22;30162;53.642;10.640;2023-02-11T06:01:42;9.90;97.00
44461;DHT22;30162;53.642;10.640;2023-02-11T06:04:07;10.30;96.60
44461;DHT22;30162;53.642;10.640;2023-02-11T06:06:33;10.30;96.50
44461;DHT22;30162;53.642;10.640;2023-02-11T06:08:58;10.30;96.20
44461;DHT22;30162;53.642;10.640;2023-02-11T06:11:24;10.20;96.40
44461;DHT22;30162;53.642;10.640;2023-02-11T06:13:49;10.10;96.40
44461;DHT22;30162;53.642;10.640;2023-02-11T06:16:15;10.00;96.60
44461;DHT22;30162;53.642;10.640;2023-02-11T06:18:40;10.10;96.50
44461;DHT22;30162;53.642;10.640;2023-02-11T06:21:06;10.10;96.70
44461;DHT22;30162;53.642;10.640;2023-02-11T06:23:32;10.10;96.60
44461;DHT22;30162;53.642;10.640;2023-02-11T06:26:02;10.20;96.60
44461;DHT22;30162;53.642;10.640;2023-02-11T06:28:27;10.20;96.70
44461;DHT22;30162;53.642;10.640;2023-02-11T06:30:55;10.00;96.60
44461;DHT22;30162;53.642;10.640;2023-02-11T06:33:21;10.20;96.90
44461;DHT22;30162;53.642;10.640;2023-02-11T06:35:46;10.30;96.50
44461;DHT22;30162;53.642;10.640;2023-02-11T06:38:11;10.30;96.50
44461;DHT22;30162;53.642;10.640;2023-02-11T06:40:37;10.20;96.60
44461;DHT22;30162;53.642;10.640;2023-02-11T06:43:02;10.20;96.80
44461;DHT22;30162;53.642;10.640;2023-02-11T06:45:28;10.30;96.40
44461;DHT22;30162;53.642;10.640;2023-02-11T06:47:53;10.10;96.60
44461;DHT22;30162;53.642;10.640;2023-02-11T06:50:19;10.10;96.80
44461;DHT22;30162;53.642;10.640;2023-02-11T06:52:44;10.50;96.40
44461;DHT22;30162;53.642;10.640;2023-02-11T06:55:10;10.60;96.10
44461;DHT22;30162;53.642;10.640;2023-02-11T06:57:35;10.60;96.20
44461;DHT22;30162;53.642;10.640;2023-02-11T07:00:01;10.50;96.20
44461;DHT22;30162;53.642;10.640;2023-02-11T07:02:26;10.70;96.20
44461;DHT22;30162;53.642;10.640;2023-02-11T07:04:52;10.50;96.40
44461;DHT22;30162;53.642;10.640;2023-02-11T07:07:17;10.60;96.30
44461;DHT22;30162;53.642;10.640;2023-02-11T07:09:43;10.30;96.40
44461;DHT22;30162;53.642;10.640;2023-02-11T07:12:08;10.50;96.50
44461;DHT22;30162;53.642;10.640;2023-02-11T07:14:34;10.70;96.40
44461;DHT22;30162;53.642;10.640;2023-02-11T07:16:59;10.60;96.40
44461;DHT22;30162;53.642;10.640;2023-02-11T07:19:25;10.60;96.30
44461;DHT22;30162;53.642;10.640;2023-02-11T07:21:50;10.80;96.30
44461;DHT22;30162;53.642;10.640;2023-02-11T07:24:15;10.90;96.00
44461;DHT22;30162;53.642;10.640;2023-02-11T07:26:41;10.70;96.30
44461;DHT22;30162;53.642;10.640;2023-02-11T07:29:06;10.90;96.30
44461;DHT22;30162;53.642;10.640;2023-02-11T07:31:32;11.00;96.10
44461;DHT22;30162;53.642;10.640;2023-02-11T07:33:58;11.00;95.90
44461;DHT22;30162;53.642;10.640;2023-02-11T07:36:24;11.10;95.80
44461;DHT22;30162;53.642;10.640;2023-02-11T07:38:50;11.20;95.80
44461;DHT22;30162;53.642;10.640;2023-02-11T07:41:16;10.90;95.70
44461;DHT22;30162;53.642;10.640;2023-02-11T07:43:42;10.90;96.10
44461;DHT22;30162;53.642;10.640;2023-02-11T07:46:09;11.00;96.30
44461;DHT22;30162;53.642;10.640;2023-02-11T07:48:35;11.00;96.10
44461;DHT22;30162;53.642;10.640;2023-02-11T07:51:07;11.20;95.90
44461;DHT22;30162;53.642;10.640;2023-02-11T07:53:33;11.20;95.80
44461;DHT22;30162;53.642;10.640;2023-02-11T07:55:58;11.10;96.10
44461;DHT22;30162;53.642;10.640;2023-02-11T07:58:24;10.70;96.50
44461;DHT22;30162;53.642;10.640;2023-02-11T08:00:49;10.80;96.80
44461;DHT22;30162;53.642;10.640;2023-02-11T08:03:15;10.60;96.60
44461;DHT22;30162;53.642;10.640;2023-02-11T08:05:40;10.90;96.60
44461;DHT22;30162;53.642;10.640;2023-02-11T08:08:06;10.90;96.30
44461;DHT22;30162;53.642;10.640;2023-02-11T08:10:31;10.70;96.50
44461;DHT22;30162;53.642;10.640;2023-02-11T08:12:57;11.00;96.50
44461;DHT22;30162;53.642;10.640;2023-02-11T08:15:22;11.00;96.30
44461;DHT22;30162;53.642;10.640;2023-02-11T08:17:48;10.90;96.40
44461;DHT22;30162;53.642;10.640;2023-02-11T08:20:13;11.20;96.10
44461;DHT22;30162;53.642;10.640;2023-02-11T08:22:39;11.10;95.90
44461;DHT22;30162;53.642;10.640;2023-02-11T08:25:05;11.00;96.40
44461;DHT22;30162;53.642;10.640;2023-02-11T08:27:30;11.20;96.10
44461;DHT22;30162;53.642;10.640;2023-02-11T08:29:56;11.20;96.00
44461;DHT22;30162;53.642;10.640;2023-02-11T08:32:23;11.20;96.00
44461;DHT22;30162;53.642;10.640;2023-02-11T08:34:52;11.30;95.80
44461;DHT22;30162;53.642;10.640;2023-02-11T08:37:18;11.30;95.80
44461;DHT22;30162;53.642;10.640;2023-02-11T08:39:43;11.20;95.70
44461;DHT22;30162;53.642;10.640;2023-02-11T08:42:11;11.10;95.90
44461;DHT22;30162;53.642;10.640;2023-02-11T08:44:37;11.10;96.10
44461;DHT22;30162;53.642;10.640;2023-02-11T08:47:03;11.00;96.40
44461;DHT22;30162;53.642;10.640;2023-02-11T08:49:29;11.10;96.20
44461;DHT22;30162;53.642;10.640;2023-02-11T08:51:55;11.20;96.20
44461;DHT22;30162;53.642;10.640;2023-02-11T08:54:23;11.20;96.10
44461;DHT22;30162;53.642;10.640;2023-02-11T08:56:49;11.20;96.10
44461;DHT22;30162;53.642;10.640;2023-02-11T08:59:15;11.20;96.10
44461;DHT22;30162;53.642;10.640;2023-02-11T09:01:41;11.20;95.90
44461;DHT22;30162;53.642;10.640;2023-02-11T09:04:08;11.60;95.80
44461;DHT22;30162;53.642;10.640;2023-02-11T09:06:34;11.60;95.40
44461;DHT22;30162;53.642;10.640;2023-02-11T09:08:59;11.50;95.50
44461;DHT22;30162;53.642;10.640;2023-02-11T09:11:27;11.40;95.50
44461;DHT22;30162;53.642;10.640;2023-02-11T09:13:53;11.20;95.90
44461;DHT22;30162;53.642;10.640;2023-02-11T09:16:20;11.40;95.80
44461;DHT22;30162;53.642;10.640;2023-02-11T09:18:45;11.60;95.60
44461;DHT22;30162;53.642;10.640;2023-02-11T09:21:11;11.70;95.40
44461;DHT22;30162;53.642;10.640;2023-02-11T09:23:37;11.20;95.90
44461;DHT22;30162;53.642;10.640;2023-02-11T09:26:06;11.30;96.40
44461;DHT22;30162;53.642;10.640;2023-02-11T09:28:32;11.00;96.40
44461;DHT22;30162;53.642;10.640;2023-02-11T09:30:57;11.30;96.20
44461;DHT22;30162;53.642;10.640;2023-02-11T09:33:22;11.50;95.80
44461;DHT22;30162;53.642;10.640;2023-02-11T09:35:48;11.80;95.50
44461;DHT22;30162;53.642;10.640;2023-02-11T09:38:13;11.70;95.40
44461;DHT22;30162;53.642;10.640;2023-02-11T09:40:42;11.60;95.70
44461;DHT22;30162;53.642;10.640;2023-02-11T09:43:14;11.40;95.80
44461;DHT22;30162;53.642;10.640;2023-02-11T09:45:41;11.10;96.20
44461;DHT22;30162;53.642;10.640;2023-02-11T09:48:13;11.30;96.20
44461;DHT22;30162;53.642;10.640;2023-02-11T09:50:41;11.40;96.20
44461;DHT22;30162;53.642;10.640;2023-02-11T09:53:14;11.30;96.20
44461;DHT22;30162;53.642;10.640;2023-02-11T09:55:42;11.40;95.80
44461;DHT22;30162;53.642;10.640;2023-02-11T09:58:13;11.40;96.20
44461;DHT22;30162;53.642;10.640;2023-02-11T10:00:42;11.40;96.20
44461;DHT22;30162;53.642;10.640;2023-02-11T10:03:15;11.50;95.90
44461;DHT22;30162;53.642;10.640;2023-02-11T10:05:50;11.30;96.10
44461;DHT22;30162;53.642;10.640;2023-02-11T10:11:07;11.20;96.30
44461;DHT22;30162;53.642;10.640;2023-02-11T10:13:57;11.40;96.40
44461;DHT22;30162;53.642;10.640;2023-02-11T10:21:38;11.70;96.00
44461;DHT22;30162;53.642;10.640;2023-02-11T10:24:11;11.70;95.80
44461;DHT22;30162;53.642;10.640;2023-02-11T10:26:37;11.80;95.90
44461;DHT22;30162;53.642;10.640;2023-02-11T10:29:05;11.90;95.60
44461;DHT22;30162;53.642;10.640;2023-02-11T10:31:37;12.10;95.50
44461;DHT22;30162;53.642;10.640;2023-02-11T10:34:05;11.80;95.80
44461;DHT22;30162;53.642;10.640;2023-02-11T10:36:39;11.80;95.90
44461;DHT22;30162;53.642;10.640;2023-02-11T10:41:44;11.50;96.10
44461;DHT22;30162;53.642;10.640;2023-02-11T10:44:18;11.50;96.50
44461;DHT22;30162;53.642;10.640;2023-02-11T10:46:45;11.80;96.30
44461;DHT22;30162;53.642;10.640;2023-02-11T10:49:12;11.80;95.90
44461;DHT22;30162;53.642;10.640;2023-02-11T10:52:11;11.90;95.80
44461;DHT22;30162;53.642;10.640;2023-02-11T10:54:36;11.80;96.00
44461;DHT22;30162;53.642;10.640;2023-02-11T10:57:02;12.10;95.70
44461;DHT22;30162;53.642;10.640;2023-02-11T10:59:29;11.90;95.80
44461;DHT22;30162;53.642;10.640;2023-02-11T11:01:56;12.10;95.80
44461;DHT22;30162;53.642;10.640;2023-02-11T11:06:55;12.50;95.20
44461;DHT22;30162;53.642;10.640;2023-02-11T11:09:27;12.50;95.10
44461;DHT22;30162;53.642;10.640;2023-02-11T11:11:54;12.40;95.00
44461;DHT22;30162;53.642;10.640;2023-02-11T11:14:20;12.40;95.30
44461;DHT22;30162;53.642;10.640;2023-02-11T11:16:53;12.20;95.20
44461;DHT22;30162;53.642;10.640;2023-02-11T11:19:20;12.20;95.50
44461;DHT22;30162;53.642;10.640;2023-02-11T11:21:48;12.30;95.60
44461;DHT22;30162;53.642;10.640;2023-02-11T11:24:39;12.40;95.40
44461;DHT22;30162;53.642;10.640;2023-02-11T11:27:14;12.40;95.20
44461;DHT22;30162;53.642;10.640;2023-02-11T11:29:47;12.40;95.50
44461;DHT22;30162;53.642;10.640;2023-02-11T11:32:21;12.30;95.50
44461;DHT22;30162;53.642;10.640;2023-02-11T11:34:48;12.40;95.10
44461;DHT22;30162;53.642;10.640;2023-02-11T11:40:09;12.80;94.80
44461;DHT22;30162;53.642;10.640;2023-02-11T11:42:36;12.90;94.40
44461;DHT22;30162;53.642;10.640;2023-02-11T11:45:17;12.80;94.40
44461;DHT22;30162;53.642;10.640;2023-02-11T11:47:47;12.60;94.60
44461;DHT22;30162;53.642;10.640;2023-02-11T11:50:24;12.40;94.90
44461;DHT22;30162;53.642;10.640;2023-02-11T11:58:03;12.40;95.10
44461;DHT22;30162;53.642;10.640;2023-02-11T12:00:38;12.40;95.30
44461;DHT22;30162;53.642;10.640;2023-02-11T12:08:44;12.20;96.20
44461;DHT22;30162;53.642;10.640;2023-02-11T12:11:23;12.00;96.50
44461;DHT22;30162;53.642;10.640;2023-02-11T12:14:11;12.00;96.40
44461;DHT22;30162;53.642;10.640;2023-02-11T12:17:22;11.90;96.40
44461;DHT22;30162;53.642;10.640;2023-02-11T12:19:40;12.30;96.40
44461;DHT22;30162;53.642;10.640;2023-02-11T12:22:09;11.90;96.50
44461;DHT22;30162;53.642;10.640;2023-02-11T12:27:13;12.30;96.20
44461;DHT22;30162;53.642;10.640;2023-02-11T12:40:17;12.00;97.00
44461;DHT22;30162;53.642;10.640;2023-02-11T12:48:16;12.10;97.00
44461;DHT22;30162;53.642;10.640;2023-02-11T12:50:56;12.30;96.50
44461;DHT22;30162;53.642;10.640;2023-02-11T12:56:04;12.10;96.60
44461;DHT22;30162;53.642;10.640;2023-02-11T12:58:30;12.20;96.70
44461;DHT22;30162;53.642;10.640;2023-02-11T13:01:02;12.50;96.40
44461;DHT22;30162;53.642;10.640;2023-02-11T13:03:34;12.60;96.00
44461;DHT22;30162;53.642;10.640;2023-02-11T13:06:07;12.60;95.60
44461;DHT22;30162;53.642;10.640;2023-02-11T13:08:34;12.70;95.90
44461;DHT22;30162;53.642;10.640;2023-02-11T13:11:06;12.80;95.60
44461;DHT22;30162;53.642;10.640;2023-02-11T13:13:38;12.50;95.40
44461;DHT22;30162;53.642;10.640;2023-02-11T13:18:58;12.00;96.30
44461;DHT22;30162;53.642;10.640;2023-02-11T13:21:28;11.80;96.60
44461;DHT22;30162;53.642;10.640;2023-02-11T13:24:04;12.20;96.50
44461;DHT22;30162;53.642;10.640;2023-02-11T13:26:39;12.10;96.10
44461;DHT22;30162;53.642;10.640;2023-02-11T13:31:32;11.90;96.40
44461;DHT22;30162;53.642;10.640;2023-02-11T13:33:57;12.00;96.40
44461;DHT22;30162;53.642;10.640;2023-02-11T13:36:24;12.30;96.30
44461;DHT22;30162;53.642;10.640;2023-02-11T13:38:51;12.20;96.00
44461;DHT22;30162;53.642;10.640;2023-02-11T13:41:25;12.40;95.90
44461;DHT22;30162;53.642;10.640;2023-02-11T13:49:23;12.20;95.90
44461;DHT22;30162;53.642;10.640;2023-02-11T13:51:50;12.50;95.70
44461;DHT22;30162;53.642;10.640;2023-02-11T13:54:23;12.40;95.60
44461;DHT22;30162;53.642;10.640;2023-02-11T14:02:01;12.20;96.10
44461;DHT22;30162;53.642;10.640;2023-02-11T14:05:29;12.40;95.90
44461;DHT22;30162;53.642;10.640;2023-02-11T14:11:00;12.30;95.90
44461;DHT22;30162;53.642;10.640;2023-02-11T14:13:29;12.20;96.00
44461;DHT22;30162;53.642;10.640;2023-02-11T14:16:11;12.10;96.20
44461;DHT22;30162;53.642;10.640;2023-02-11T14:21:12;12.10;96.40
44461;DHT22;30162;53.642;10.640;2023-02-11T14:23:38;12.20;96.40
44461;DHT22;30162;53.642;10.640;2023-02-11T14:28:46;12.20;96.00
44461;DHT22;30162;53.642;10.640;2023-02-11T14:31:13;12.30;96.20
44461;DHT22;30162;53.642;10.640;2023-02-11T14:33:46;12.50;95.80
44461;DHT22;30162;53.642;10.640;2023-02-11T14:41:31;12.60;95.70
44461;DHT22;30162;53.642;10.640;2023-02-11T14:43:59;12.60;95.80
44461;DHT22;30162;53.642;10.640;2023-02-11T14:46:25;12.40;95.60
44461;DHT22;30162;53.642;10.640;2023-02-11T14:48:55;12.50;95.80
44461;DHT22;30162;53.642;10.640;2023-02-11T14:51:23;12.50;95.90
44461;DHT22;30162;53.642;10.640;2023-02-11T14:53:51;12.50;95.70
44461;DHT22;30162;53.642;10.640;2023-02-11T14:56:24;12.50;95.60
44461;DHT22;30162;53.642;10.640;2023-02-11T14:58:51;12.40;95.70
44461;DHT22;30162;53.642;10.640;2023-02-11T15:03:52;12.30;96.00
44461;DHT22;30162;53.642;10.640;2023-02-11T15:11:26;12.30;96.00
44461;DHT22;30162;53.642;10.640;2023-02-11T15:13:52;12.20;96.00
44461;DHT22;30162;53.642;10.640;2023-02-11T15:16:20;12.00;96.20
44461;DHT22;30162;53.642;10.640;2023-02-11T15:18:57;12.30;96.30
44461;DHT22;30162;53.642;10.640;2023-02-11T15:21:26;12.20;95.90
44461;DHT22;30162;53.642;10.640;2023-02-11T15:23:54;12.10;96.40
44461;DHT22;30162;53.642;10.640;2023-02-11T15:26:21;12.00;96.50
44461;DHT22;30162;53.642;10.640;2023-02-11T15:28:46;11.90;96.60
44461;DHT22;30162;53.642;10.640;2023-02-11T15:31:17;12.00;96.50
44461;DHT22;30162;53.642;10.640;2023-02-11T15:33:43;12.00;96.50
44461;DHT22;30162;53.642;10.640;2023-02-11T15:36:09;11.90;96.70
44461;DHT22;30162;53.642;10.640;2023-02-11T15:38:35;12.10;96.70
44461;DHT22;30162;53.642;10.640;2023-02-11T15:41:01;12.10;96.60
44461;DHT22;30162;53.642;10.640;2023-02-11T15:46:05;12.30;96.30
44461;DHT22;30162;53.642;10.640;2023-02-11T15:51:00;12.40;96.00
44461;DHT22;30162;53.642;10.640;2023-02-11T15:53:36;12.50;95.80
44461;DHT22;30162;53.642;10.640;2023-02-11T15:58:36;12.50;95.60
44461;DHT22;30162;53.642;10.640;2023-02-11T16:01:02;12.50;95.80
44461;DHT22;30162;53.642;10.640;2023-02-11T16:03:28;12.50;95.50
44461;DHT22;30162;53.642;10.640;2023-02-11T16:08:40;12.40;95.40
44461;DHT22;30162;53.642;10.640;2023-02-11T16:11:27;12.40;95.50
44461;DHT22;30162;53.642;10.640;2023-02-11T16:13:54;12.50;95.70
44461;DHT22;30162;53.642;10.640;2023-02-11T16:16:21;12.50;95.60
44461;DHT22;30162;53.642;10.640;2023-02-11T16:18:51;12.20;95.70
44461;DHT22;30162;53.642;10.640;2023-02-11T16:21:17;12.30;95.50
44461;DHT22;30162;53.642;10.640;2023-02-11T16:28:44;12.20;95.70
44461;DHT22;30162;53.642;10.640;2023-02-11T16:31:09;12.10;95.60
44461;DHT22;30162;53.642;10.640;2023-02-11T16:33:35;12.30;95.60
44461;DHT22;30162;53.642;10.640;2023-02-11T16:36:01;12.40;95.40
44461;DHT22;30162;53.642;10.640;2023-02-11T16:38:31;12.10;95.40
44461;DHT22;30162;53.642;10.640;2023-02-11T16:40:56;12.00;95.70
44461;DHT22;30162;53.642;10.640;2023-02-11T16:43:21;12.00;95.90
44461;DHT22;30162;53.642;10.640;2023-02-11T16:45:47;12.00;95.70
44461;DHT22;30162;53.642;10.640;2023-02-11T16:48:14;12.20;95.60
44461;DHT22;30162;53.642;10.640;2023-02-11T16:50:42;12.30;95.50
44461;DHT22;30162;53.642;10.640;2023-02-11T16:53:08;12.30;95.40
44461;DHT22;30162;53.642;10.640;2023-02-11T16:55:34;12.40;95.20
44461;DHT22;30162;53.642;10.640;2023-02-11T16:57:59;12.20;95.30
44461;DHT22;30162;53.642;10.640;2023-02-11T17:00:25;12.20;95.30
44461;DHT22;30162;53.642;10.640;2023-02-11T17:02:50;12.20;95.20
44461;DHT22;30162;53.642;10.640;2023-02-11T17:05:17;12.20;95.30
44461;DHT22;30162;53.642;10.640;2023-02-11T17:07:44;12.30;95.10
44461;DHT22;30162;53.642;10.640;2023-02-11T17:10:13;12.20;95.20
44461;DHT22;30162;53.642;10.640;2023-02-11T17:12:39;12.20;95.20
44461;DHT22;30162;53.642;10.640;2023-02-11T17:15:04;12.10;95.00
44461;DHT22;30162;53.642;10.640;2023-02-11T17:17:30;12.20;95.40
44461;DHT22;30162;53.642;10.640;2023-02-11T17:19:55;12.20;95.20
44461;DHT22;30162;53.642;10.640;2023-02-11T17:22:21;12.20;95.10
44461;DHT22;30162;53.642;10.640;2023-02-11T17:24:46;12.20;95.30
44461;DHT22;30162;53.642;10.640;2023-02-11T17:27:12;12.20;95.20
44461;DHT22;30162;53.642;10.640;2023-02-11T17:29:37;12.20;95.20
44461;DHT22;30162;53.642;10.640;2023-02-11T17:32:02;12.20;94.90